sensor_id;sensor_type;location;lat;lon;timestamp;temperature;humidity
76104;HTU21D;64831;44.870;37.336;2023-11-22T00:00:10;10.71;75.70
76104;HTU21D;64831;44.870;37.336;2023-11-22T00:02:37;10.70;75.57
76104;HTU21D;64831;44.870;37.336;2023-11-22T00:05:04;10.70;76.32
76104;HTU21D;64831;44.870;37.336;2023-11-22T00:07:33;10.70;76.05
76104;HTU21D;64831;44.870;37.336;2023-11-22T00:09:59;10.71;75.88
76104;HTU21D;64831;44.870;37.336;2023-11-22T00:12:27;10.72;75.95
76104;HTU21D;64831;44.870;37.336;2023-11-22T00:14:54;10.75;76.53
76104;HTU21D;64831;44.870;37.336;2023-11-22T00:17:20;10.82;76.65
76104;HTU21D;64831;44.870;37.336;2023-11-22T00:19:46;10.85;76.56
76104;HTU21D;64831;44.870;37.336;2023-11-22T00:22:12;10.90;76.93
76104;HTU21D;64831;44.870;37.336;2023-11-22T00:24:42;10.96;76.80
76104;HTU21D;64831;44.870;37.336;2023-11-22T00:27:08;11.02;76.56
76104;HTU21D;64831;44.870;37.336;2023-11-22T00:29:36;11.09;76.62
76104;HTU21D;64831;44.870;37.336;2023-11-22T00:32:02;11.14;76.73
76104;HTU21D;64831;44.870;37.336;2023-11-22T00:34:28;11.19;76.87
76104;HTU21D;64831;44.870;37.336;2023-11-22T00:36:53;11.26;76.91
76104;HTU21D;64831;44.870;37.336;2023-11-22T00:39:19;11.30;76.73
76104;HTU21D;64831;44.870;37.336;2023-11-22T00:41:45;11.33;76.67
76104;HTU21D;64831;44.870;37.336;2023-11-22T00:44:12;11.37;76.82
76104;HTU21D;64831;44.870;37.336;2023-11-22T00:46:38;11.40;76.98
76104;HTU21D;64831;44.870;37.336;2023-11-22T00:49:04;11.44;76.75
76104;HTU21D;64831;44.870;37.336;2023-11-22T00:51:31;11.45;76.77
76104;HTU21D;64831;44.870;37.336;2023-11-22T00:53:58;11.48;76.89
76104;HTU21D;64831;44.870;37.336;2023-11-22T00:56:24;11.51;77.37
76104;HTU21D;64831;44.870;37.336;2023-11-22T00:58:50;11.54;77.33
76104;HTU21D;64831;44.870;37.336;2023-11-22T01:01:16;11.57;77.39
76104;HTU21D;64831;44.870;37.336;2023-11-22T01:03:43;11.58;77.66
76104;HTU21D;64831;44.870;37.336;2023-11-22T01:06:09;11.63;78.23
76104;HTU21D;64831;44.870;37.336;2023-11-22T01:08:35;11.63;78.12
76104;HTU21D;64831;44.870;37.336;2023-11-22T01:11:02;11.64;77.80
76104;HTU21D;64831;44.870;37.336;2023-11-22T01:13:32;11.63;77.60
76104;HTU21D;64831;44.870;37.336;2023-11-22T01:15:58;11.61;78.32
76104;HTU21D;64831;44.870;37.336;2023-11-22T01:18:24;11.58;78.11
76104;HTU21D;64831;44.870;37.336;2023-11-22T01:20:50;11.59;78.20
76104;HTU21D;64831;44.870;37.336;2023-11-22T01:23:16;11.57;78.56
76104;HTU21D;64831;44.870;37.336;2023-11-22T01:25:42;11.58;78.44
76104;HTU21D;64831;44.870;37.336;2023-11-22T01:28:08;11.57;79.19
76104;HTU21D;64831;44.870;37.336;2023-11-22T01:30:36;11.57;79.58
76104;HTU21D;64831;44.870;37.336;2023-11-22T01:33:04;11.58;79.19
76104;HTU21D;64831;44.870;37.336;2023-11-22T01:35:30;11.58;79.82
76104;HTU21D;64831;44.870;37.336;2023-11-22T01:37:56;11.57;80.01
76104;HTU21D;64831;44.870;37.336;2023-11-22T01:40:23;11.56;79.37
76104;HTU21D;64831;44.870;37.336;2023-11-22T01:42:51;11.54;79.58
76104;HTU21D;64831;44.870;37.336;2023-11-22T01:45:17;11.56;80.11
76104;HTU21D;64831;44.870;37.336;2023-11-22T01:47:44;11.55;80.47
76104;HTU21D;64831;44.870;37.336;2023-11-22T01:50:10;11.56;80.52
76104;HTU21D;64831;44.870;37.336;2023-11-22T01:52:36;11.60;80.85
76104;HTU21D;64831;44.870;37.336;2023-11-22T01:55:03;11.61;80.84
76104;HTU21D;64831;44.870;37.336;2023-11-22T01:57:31;11.61;80.77
76104;HTU21D;64831;44.870;37.336;2023-11-22T02:00:03;11.63;80.94
76104;HTU21D;64831;44.870;37.336;2023-11-22T02:02:38;11.66;81.29
76104;HTU21D;64831;44.870;37.336;2023-11-22T02:05:04;11.69;81.25
76104;HTU21D;64831;44.870;37.336;2023-11-22T02:07:31;11.73;81.07
76104;HTU21D;64831;44.870;37.336;2023-11-22T02:09:58;11.75;80.98
76104;HTU21D;64831;44.870;37.336;2023-11-22T02:12:24;11.76;81.25
76104;HTU21D;64831;44.870;37.336;2023-11-22T02:14:50;11.84;82.42
76104;HTU21D;64831;44.870;37.336;2023-11-22T02:17:16;11.83;83.45
76104;HTU21D;64831;44.870;37.336;2023-11-22T02:19:45;11.71;82.27
76104;HTU21D;64831;44.870;37.336;2023-11-22T02:22:12;11.54;80.91
76104;HTU21D;64831;44.870;37.336;2023-11-22T02:24:38;11.27;80.21
76104;HTU21D;64831;44.870;37.336;2023-11-22T02:27:04;10.98;80.20
76104;HTU21D;64831;44.870;37.336;2023-11-22T02:29:30;10.74;80.49
76104;HTU21D;64831;44.870;37.336;2023-11-22T02:31:56;10.55;80.85
76104;HTU21D;64831;44.870;37.336;2023-11-22T02:34:22;10.43;81.21
76104;HTU21D;64831;44.870;37.336;2023-11-22T02:36:47;10.34;81.36
76104;HTU21D;64831;44.870;37.336;2023-11-22T02:39:14;10.26;81.75
76104;HTU21D;64831;44.870;37.336;2023-11-22T02:41:40;10.23;81.89
76104;HTU21D;64831;44.870;37.336;2023-11-22T02:44:06;10.19;81.89
76104;HTU21D;64831;44.870;37.336;2023-11-22T02:46:32;10.16;81.78
76104;HTU21D;64831;44.870;37.336;2023-11-22T02:48:59;10.13;81.96
76104;HTU21D;64831;44.870;37.336;2023-11-22T02:51:26;10.07;81.85
76104;HTU21D;64831;44.870;37.336;2023-11-22T02:53:53;10.00;81.52
76104;HTU21D;64831;44.870;37.336;2023-11-22T02:56:19;9.90;81.43
76104;HTU21D;64831;44.870;37.336;2023-11-22T02:58:45;9.85;81.46
76104;HTU21D;64831;44.870;37.336;2023-11-22T03:01:11;9.83;81.54
76104;HTU21D;64831;44.870;37.336;2023-11-22T03:03:37;9.82;81.64
76104;HTU21D;64831;44.870;37.336;2023-11-22T03:06:03;9.82;81.74
76104;HTU21D;64831;44.870;37.336;2023-11-22T03:08:30;9.81;81.69
76104;HTU21D;64831;44.870;37.336;2023-11-22T03:10:56;9.81;81.67
76104;HTU21D;64831;44.870;37.336;2023-11-22T03:13:22;9.79;81.65
76104;HTU21D;64831;44.870;37.336;2023-11-22T03:15:48;9.77;81.48
76104;HTU21D;64831;44.870;37.336;2023-11-22T03:18:14;9.72;81.35
76104;HTU21D;64831;44.870;37.336;2023-11-22T03:20:42;9.67;81.31
76104;HTU21D;64831;44.870;37.336;2023-11-22T03:23:08;9.63;81.30
76104;HTU21D;64831;44.870;37.336;2023-11-22T03:25:36;9.59;81.53
76104;HTU21D;64831;44.870;37.336;2023-11-22T03:28:03;9.56;81.66
76104;HTU21D;64831;44.870;37.336;2023-11-22T03:30:28;9.57;81.77
76104;HTU21D;64831;44.870;37.336;2023-11-22T03:32:54;9.56;81.81
76104;HTU21D;64831;44.870;37.336;2023-11-22T03:35:21;9.59;81.84
76104;HTU21D;64831;44.870;37.336;2023-11-22T03:37:47;9.56;82.25
76104;HTU21D;64831;44.870;37.336;2023-11-22T03:40:13;9.54;82.13
76104;HTU21D;64831;44.870;37.336;2023-11-22T03:42:39;9.55;82.05
76104;HTU21D;64831;44.870;37.336;2023-11-22T03:45:06;9.52;82.13
76104;HTU21D;64831;44.870;37.336;2023-11-22T03:47:32;9.51;82.11
76104;HTU21D;64831;44.870;37.336;2023-11-22T03:49:59;9.48;82.06
76104;HTU21D;64831;44.870;37.336;2023-11-22T03:52:25;9.45;82.50
76104;HTU21D;64831;44.870;37.336;2023-11-22T03:54:54;9.44;82.52
76104;HTU21D;64831;44.870;37.336;2023-11-22T03:57:20;9.44;82.43
76104;HTU21D;64831;44.870;37.336;2023-11-22T03:59:46;9.45;82.55
76104;HTU21D;64831;44.870;37.336;2023-11-22T04:02:12;9.48;82.46
76104;HTU21D;64831;44.870;37.336;2023-11-22T04:04:38;9.49;82.46
76104;HTU21D;64831;44.870;37.336;2023-11-22T04:07:06;9.52;82.65
76104;HTU21D;64831;44.870;37.336;2023-11-22T04:09:32;9.54;82.55
76104;HTU21D;64831;44.870;37.336;2023-11-22T04:11:58;9.54;82.62
76104;HTU21D;64831;44.870;37.336;2023-11-22T04:14:24;9.53;82.82
76104;HTU21D;64831;44.870;37.336;2023-11-22T04:16:53;9.50;83.39
76104;HTU21D;64831;44.870;37.336;2023-11-22T04:19:19;9.47;83.35
76104;HTU21D;64831;44.870;37.336;2023-11-22T04:21:45;9.47;83.56
76104;HTU21D;64831;44.870;37.336;2023-11-22T04:24:10;9.49;83.23
76104;HTU21D;64831;44.870;37.336;2023-11-22T04:26:38;9.51;83.55
76104;HTU21D;64831;44.870;37.336;2023-11-22T04:29:04;9.48;84.48
76104;HTU21D;64831;44.870;37.336;2023-11-22T04:31:30;9.44;84.70
76104;HTU21D;64831;44.870;37.336;2023-11-22T04:33:56;9.44;84.35
76104;HTU21D;64831;44.870;37.336;2023-11-22T04:36:24;9.51;84.14
76104;HTU21D;64831;44.870;37.336;2023-11-22T04:38:50;9.62;84.09
76104;HTU21D;64831;44.870;37.336;2023-11-22T04:41:16;9.92;85.29
76104;HTU21D;64831;44.870;37.336;2023-11-22T04:43:44;10.31;86.77
76104;HTU21D;64831;44.870;37.336;2023-11-22T04:46:10;10.59;88.17
76104;HTU21D;64831;44.870;37.336;2023-11-22T04:48:36;10.86;89.05
76104;HTU21D;64831;44.870;37.336;2023-11-22T04:51:06;10.95;88.60
76104;HTU21D;64831;44.870;37.336;2023-11-22T04:53:32;11.07;88.02
76104;HTU21D;64831;44.870;37.336;2023-11-22T04:55:58;11.19;87.57
76104;HTU21D;64831;44.870;37.336;2023-11-22T04:58:25;11.32;87.27
76104;HTU21D;64831;44.870;37.336;2023-11-22T05:00:51;11.43;86.97
76104;HTU21D;64831;44.870;37.336;2023-11-22T05:03:17;11.56;86.58
76104;HTU21D;64831;44.870;37.336;2023-11-22T05:05:43;11.63;85.97
76104;HTU21D;64831;44.870;37.336;2023-11-22T05:08:09;11.71;85.50
76104;HTU21D;64831;44.870;37.336;2023-11-22T05:10:35;11.79;85.16
76104;HTU21D;64831;44.870;37.336;2023-11-22T05:13:00;11.86;84.84
76104;HTU21D;64831;44.870;37.336;2023-11-22T05:15:27;11.92;84.66
76104;HTU21D;64831;44.870;37.336;2023-11-22T05:17:53;11.99;84.50
76104;HTU21D;64831;44.870;37.336;2023-11-22T05:20:19;12.03;84.53
76104;HTU21D;64831;44.870;37.336;2023-11-22T05:22:45;12.08;84.23
76104;HTU21D;64831;44.870;37.336;2023-11-22T05:25:11;12.15;84.29
76104;HTU21D;64831;44.870;37.336;2023-11-22T05:27:37;12.19;84.00
76104;HTU21D;64831;44.870;37.336;2023-11-22T05:30:03;12.22;83.80
76104;HTU21D;64831;44.870;37.336;2023-11-22T05:32:30;12.28;83.84
76104;HTU21D;64831;44.870;37.336;2023-11-22T05:34:56;12.30;83.65
76104;HTU21D;64831;44.870;37.336;2023-11-22T05:37:22;12.34;83.49
76104;HTU21D;64831;44.870;37.336;2023-11-22T05:39:48;12.38;83.29
76104;HTU21D;64831;44.870;37.336;2023-11-22T05:42:14;12.43;83.13
76104;HTU21D;64831;44.870;37.336;2023-11-22T05:44:40;12.47;82.96
76104;HTU21D;64831;44.870;37.336;2023-11-22T05:47:06;12.51;82.84
76104;HTU21D;64831;44.870;37.336;2023-11-22T05:49:34;12.56;82.70
76104;HTU21D;64831;44.870;37.336;2023-11-22T05:52:00;12.59;82.54
76104;HTU21D;64831;44.870;37.336;2023-11-22T05:54:26;12.63;82.39
76104;HTU21D;64831;44.870;37.336;2023-11-22T05:56:52;12.69;82.24
76104;HTU21D;64831;44.870;37.336;2023-11-22T05:59:18;12.75;82.18
76104;HTU21D;64831;44.870;37.336;2023-11-22T06:01:43;12.79;82.07
76104;HTU21D;64831;44.870;37.336;2023-11-22T06:04:09;12.85;81.99
76104;HTU21D;64831;44.870;37.336;2023-11-22T06:06:36;12.88;82.03
76104;HTU21D;64831;44.870;37.336;2023-11-22T06:09:02;12.93;81.84
76104;HTU21D;64831;44.870;37.336;2023-11-22T06:11:31;12.96;81.69
76104;HTU21D;64831;44.870;37.336;2023-11-22T06:13:56;13.01;81.62
76104;HTU21D;64831;44.870;37.336;2023-11-22T06:16:22;13.02;81.72
76104;HTU21D;64831;44.870;37.336;2023-11-22T06:18:48;13.05;81.62
76104;HTU21D;64831;44.870;37.336;2023-11-22T06:21:14;13.10;81.52
76104;HTU21D;64831;44.870;37.336;2023-11-22T06:23:40;13.14;81.43
76104;HTU21D;64831;44.870;37.336;2023-11-22T06:26:06;13.17;81.33
76104;HTU21D;64831;44.870;37.336;2023-11-22T06:28:32;13.19;81.30
76104;HTU21D;64831;44.870;37.336;2023-11-22T06:30:58;13.22;81.23
76104;HTU21D;64831;44.870;37.336;2023-11-22T06:33:24;13.25;81.12
76104;HTU21D;64831;44.870;37.336;2023-11-22T06:35:50;13.26;81.23
76104;HTU21D;64831;44.870;37.336;2023-11-22T06:38:16;13.31;81.18
76104;HTU21D;64831;44.870;37.336;2023-11-22T06:40:42;13.33;81.17
76104;HTU21D;64831;44.870;37.336;2023-11-22T06:43:08;13.35;81.18
76104;HTU21D;64831;44.870;37.336;2023-11-22T06:45:34;13.38;81.18
76104;HTU21D;64831;44.870;37.336;2023-11-22T06:48:00;13.39;81.07
76104;HTU21D;64831;44.870;37.336;2023-11-22T06:50:26;13.43;81.22
76104;HTU21D;64831;44.870;37.336;2023-11-22T06:52:52;13.46;81.17
76104;HTU21D;64831;44.870;37.336;2023-11-22T06:55:18;13.48;81.06
76104;HTU21D;64831;44.870;37.336;2023-11-22T06:57:45;13.49;81.04
76104;HTU21D;64831;44.870;37.336;2023-11-22T07:00:11;13.51;80.98
76104;HTU21D;64831;44.870;37.336;2023-11-22T07:02:38;13.52;80.98
76104;HTU21D;64831;44.870;37.336;2023-11-22T07:05:04;13.53;81.00
76104;HTU21D;64831;44.870;37.336;2023-11-22T07:07:37;13.56;80.91
76104;HTU21D;64831;44.870;37.336;2023-11-22T07:10:03;13.59;80.81
76104;HTU21D;64831;44.870;37.336;2023-11-22T07:12:32;13.60;80.84
76104;HTU21D;64831;44.870;37.336;2023-11-22T07:14:58;13.62;80.83
76104;HTU21D;64831;44.870;37.336;2023-11-22T07:17:25;13.65;80.86
76104;HTU21D;64831;44.870;37.336;2023-11-22T07:19:53;13.66;80.83
76104;HTU21D;64831;44.870;37.336;2023-11-22T07:22:20;13.64;80.86
76104;HTU21D;64831;44.870;37.336;2023-11-22T07:24:48;13.65;80.76
76104;HTU21D;64831;44.870;37.336;2023-11-22T07:27:18;13.63;80.77
76104;HTU21D;64831;44.870;37.336;2023-11-22T07:29:45;13.65;80.68
76104;HTU21D;64831;44.870;37.336;2023-11-22T07:32:14;13.66;80.62
76104;HTU21D;64831;44.870;37.336;2023-11-22T07:34:40;13.62;80.59
76104;HTU21D;64831;44.870;37.336;2023-11-22T07:37:07;13.60;80.65
76104;HTU21D;64831;44.870;37.336;2023-11-22T07:39:34;13.56;80.75
76104;HTU21D;64831;44.870;37.336;2023-11-22T07:42:07;13.56;80.65
76104;HTU21D;64831;44.870;37.336;2023-11-22T07:44:35;13.58;80.69
76104;HTU21D;64831;44.870;37.336;2023-11-22T07:47:03;13.58;80.74
76104;HTU21D;64831;44.870;37.336;2023-11-22T07:49:33;13.59;80.88
76104;HTU21D;64831;44.870;37.336;2023-11-22T07:52:03;13.61;80.74
76104;HTU21D;64831;44.870;37.336;2023-11-22T07:54:29;13.63;80.69
76104;HTU21D;64831;44.870;37.336;2023-11-22T07:56:56;13.63;80.65
76104;HTU21D;64831;44.870;37.336;2023-11-22T07:59:22;13.66;80.52
76104;HTU21D;64831;44.870;37.336;2023-11-22T08:01:48;13.66;80.43
76104;HTU21D;64831;44.870;37.336;2023-11-22T08:04:14;13.68;80.41
76104;HTU21D;64831;44.870;37.336;2023-11-22T08:06:42;13.70;80.40
76104;HTU21D;64831;44.870;37.336;2023-11-22T08:09:08;13.69;80.38
76104;HTU21D;64831;44.870;37.336;2023-11-22T08:11:35;13.71;80.27
76104;HTU21D;64831;44.870;37.336;2023-11-22T08:14:02;13.73;80.29
76104;HTU21D;64831;44.870;37.336;2023-11-22T08:16:28;13.71;80.00
76104;HTU21D;64831;44.870;37.336;2023-11-22T08:18:54;13.70;79.92
76104;HTU21D;64831;44.870;37.336;2023-11-22T08:21:22;13.69;80.04
76104;HTU21D;64831;44.870;37.336;2023-11-22T08:23:49;13.69;80.00
76104;HTU21D;64831;44.870;37.336;2023-11-22T08:26:15;13.69;79.95
76104;HTU21D;64831;44.870;37.336;2023-11-22T08:28:41;13.70;79.88
76104;HTU21D;64831;44.870;37.336;2023-11-22T08:31:07;13.70;79.85
76104;HTU21D;64831;44.870;37.336;2023-11-22T08:33:39;13.69;79.89
76104;HTU21D;64831;44.870;37.336;2023-11-22T08:36:09;13.71;79.88
76104;HTU21D;64831;44.870;37.336;2023-11-22T08:38:35;13.70;79.91
76104;HTU21D;64831;44.870;37.336;2023-11-22T08:41:05;13.71;79.98
76104;HTU21D;64831;44.870;37.336;2023-11-22T08:43:31;13.75;80.06
76104;HTU21D;64831;44.870;37.336;2023-11-22T08:46:01;13.79;80.11
76104;HTU21D;64831;44.870;37.336;2023-11-22T08:48:30;13.84;80.17
76104;HTU21D;64831;44.870;37.336;2023-11-22T08:50:56;13.90;80.07
76104;HTU21D;64831;44.870;37.336;2023-11-22T08:53:24;13.92;79.90
76104;HTU21D;64831;44.870;37.336;2023-11-22T08:55:50;13.93;79.78
76104;HTU21D;64831;44.870;37.336;2023-11-22T08:58:16;13.96;79.87
76104;HTU21D;64831;44.870;37.336;2023-11-22T09:00:42;13.99;79.88
76104;HTU21D;64831;44.870;37.336;2023-11-22T09:03:11;14.03;79.75
76104;HTU21D;64831;44.870;37.336;2023-11-22T09:05:42;14.07;79.68
76104;HTU21D;64831;44.870;37.336;2023-11-22T09:08:08;14.06;79.63
76104;HTU21D;64831;44.870;37.336;2023-11-22T09:10:41;14.07;79.59
76104;HTU21D;64831;44.870;37.336;2023-11-22T09:13:10;14.08;79.62
76104;HTU21D;64831;44.870;37.336;2023-11-22T09:15:38;14.09;79.60
76104;HTU21D;64831;44.870;37.336;2023-11-22T09:18:05;14.10;79.57
76104;HTU21D;64831;44.870;37.336;2023-11-22T09:20:31;14.08;79.57
76104;HTU21D;64831;44.870;37.336;2023-11-22T09:22:58;14.06;79.46
76104;HTU21D;64831;44.870;37.336;2023-11-22T09:25:25;14.10;79.49
76104;HTU21D;64831;44.870;37.336;2023-11-22T09:27:52;14.11;79.40
76104;HTU21D;64831;44.870;37.336;2023-11-22T09:30:22;14.12;79.33
76104;HTU21D;64831;44.870;37.336;2023-11-22T09:33:13;14.14;79.24
76104;HTU21D;64831;44.870;37.336;2023-11-22T09:35:46;14.11;79.23
76104;HTU21D;64831;44.870;37.336;2023-11-22T09:38:13;14.09;79.19
76104;HTU21D;64831;44.870;37.336;2023-11-22T09:40:48;14.09;79.21
76104;HTU21D;64831;44.870;37.336;2023-11-22T09:43:16;14.09;79.17
76104;HTU21D;64831;44.870;37.336;2023-11-22T09:45:49;14.09;79.25
76104;HTU21D;64831;44.870;37.336;2023-11-22T09:48:20;14.10;79.13
76104;HTU21D;64831;44.870;37.336;2023-11-22T09:51:08;14.09;79.28
76104;HTU21D;64831;44.870;37.336;2023-11-22T09:56:13;14.12;79.21
76104;HTU21D;64831;44.870;37.336;2023-11-22T09:58:41;14.13;79.17
76104;HTU21D;64831;44.870;37.336;2023-11-22T10:01:13;14.10;79.26
76104;HTU21D;64831;44.870;37.336;2023-11-22T10:03:39;14.11;79.26
76104;HTU21D;64831;44.870;37.336;2023-11-22T10:06:06;14.07;79.27
76104;HTU21D;64831;44.870;37.336;2023-11-22T10:08:32;14.06;79.08
76104;HTU21D;64831;44.870;37.336;2023-11-22T10:10:59;14.04;79.07
76104;HTU21D;64831;44.870;37.336;2023-11-22T10:13:26;14.01;78.99
76104;HTU21D;64831;44.870;37.336;2023-11-22T10:15:53;13.98;79.06
76104;HTU21D;64831;44.870;37.336;2023-11-22T10:18:19;13.92;79.26
76104;HTU21D;64831;44.870;37.336;2023-11-22T10:20:48;13.89;79.23
76104;HTU21D;64831;44.870;37.336;2023-11-22T10:23:16;13.85;79.33
76104;HTU21D;64831;44.870;37.336;2023-11-22T10:25:48;13.80;79.27
76104;HTU21D;64831;44.870;37.336;2023-11-22T10:28:18;13.75;79.26
76104;HTU21D;64831;44.870;37.336;2023-11-22T10:30:48;13.65;79.45
76104;HTU21D;64831;44.870;37.336;2023-11-22T10:33:15;13.56;79.94
76104;HTU21D;64831;44.870;37.336;2023-11-22T10:35:51;13.50;79.75
76104;HTU21D;64831;44.870;37.336;2023-11-22T10:38:18;13.46;79.79
76104;HTU21D;64831;44.870;37.336;2023-11-22T10:40:45;13.41;80.20
76104;HTU21D;64831;44.870;37.336;2023-11-22T10:43:12;13.40;80.14
76104;HTU21D;64831;44.870;37.336;2023-11-22T10:45:38;13.37;80.37
76104;HTU21D;64831;44.870;37.336;2023-11-22T10:48:05;13.39;80.39
76104;HTU21D;64831;44.870;37.336;2023-11-22T10:50:34;13.39;80.44
76104;HTU21D;64831;44.870;37.336;2023-11-22T10:53:07;13.37;80.89
76104;HTU21D;64831;44.870;37.336;2023-11-22T10:55:37;13.37;80.69
76104;HTU21D;64831;44.870;37.336;2023-11-22T10:58:06;13.38;80.90
76104;HTU21D;64831;44.870;37.336;2023-11-22T11:00:33;13.39;80.97
76104;HTU21D;64831;44.870;37.336;2023-11-22T11:03:03;13.43;80.75
76104;HTU21D;64831;44.870;37.336;2023-11-22T11:05:33;13.45;80.56
76104;HTU21D;64831;44.870;37.336;2023-11-22T11:08:11;13.49;80.56
76104;HTU21D;64831;44.870;37.336;2023-11-22T11:10:42;13.50;80.67
76104;HTU21D;64831;44.870;37.336;2023-11-22T11:13:09;13.54;80.61
76104;HTU21D;64831;44.870;37.336;2023-11-22T11:15:39;13.54;80.53
76104;HTU21D;64831;44.870;37.336;2023-11-22T11:18:06;13.56;80.63
76104;HTU21D;64831;44.870;37.336;2023-11-22T11:20:55;13.54;80.72
76104;HTU21D;64831;44.870;37.336;2023-11-22T11:23:26;13.56;80.62
76104;HTU21D;64831;44.870;37.336;2023-11-22T11:25:54;13.58;80.84
76104;HTU21D;64831;44.870;37.336;2023-11-22T11:28:21;13.60;81.04
76104;HTU21D;64831;44.870;37.336;2023-11-22T11:30:49;13.65;81.27
76104;HTU21D;64831;44.870;37.336;2023-11-22T11:33:18;13.67;81.35
76104;HTU21D;64831;44.870;37.336;2023-11-22T11:35:48;13.71;81.23
76104;HTU21D;64831;44.870;37.336;2023-11-22T11:38:15;13.74;81.30
76104;HTU21D;64831;44.870;37.336;2023-11-22T11:40:45;13.77;81.32
76104;HTU21D;64831;44.870;37.336;2023-11-22T11:43:11;13.79;81.09
76104;HTU21D;64831;44.870;37.336;2023-11-22T11:45:39;13.83;81.03
76104;HTU21D;64831;44.870;37.336;2023-11-22T11:48:06;13.83;80.89
76104;HTU21D;64831;44.870;37.336;2023-11-22T11:50:33;13.85;80.81
76104;HTU21D;64831;44.870;37.336;2023-11-22T11:52:59;13.84;80.85
76104;HTU21D;64831;44.870;37.336;2023-11-22T11:55:26;13.85;80.83
76104;HTU21D;64831;44.870;37.336;2023-11-22T11:57:56;13.85;80.96
76104;HTU21D;64831;44.870;37.336;2023-11-22T12:00:23;13.85;80.93
76104;HTU21D;64831;44.870;37.336;2023-11-22T12:02:53;13.85;81.00
76104;HTU21D;64831;44.870;37.336;2023-11-22T12:05:19;13.84;80.94
76104;HTU21D;64831;44.870;37.336;2023-11-22T12:07:46;13.84;81.01
76104;HTU21D;64831;44.870;37.336;2023-11-22T12:10:13;13.84;80.91
76104;HTU21D;64831;44.870;37.336;2023-11-22T12:12:39;13.86;80.85
76104;HTU21D;64831;44.870;37.336;2023-11-22T12:15:05;13.86;80.86
76104;HTU21D;64831;44.870;37.336;2023-11-22T12:17:35;13.88;80.87
76104;HTU21D;64831;44.870;37.336;2023-11-22T12:20:15;13.88;80.85
76104;HTU21D;64831;44.870;37.336;2023-11-22T12:22:43;13.89;80.91
76104;HTU21D;64831;44.870;37.336;2023-11-22T12:25:11;13.88;80.90
76104;HTU21D;64831;44.870;37.336;2023-11-22T12:27:41;13.89;80.85
76104;HTU21D;64831;44.870;37.336;2023-11-22T12:30:08;13.89;80.90
76104;HTU21D;64831;44.870;37.336;2023-11-22T12:32:40;13.90;80.91
76104;HTU21D;64831;44.870;37.336;2023-11-22T12:35:07;13.90;80.83
76104;HTU21D;64831;44.870;37.336;2023-11-22T12:37:34;13.89;80.88
76104;HTU21D;64831;44.870;37.336;2023-11-22T12:40:09;13.90;80.87
76104;HTU21D;64831;44.870;37.336;2023-11-22T12:42:57;13.89;81.10
76104;HTU21D;64831;44.870;37.336;2023-11-22T12:45:25;13.91;81.09
76104;HTU21D;64831;44.870;37.336;2023-11-22T12:47:52;13.93;81.06
76104;HTU21D;64831;44.870;37.336;2023-11-22T12:50:37;13.93;81.06
76104;HTU21D;64831;44.870;37.336;2023-11-22T12:53:16;13.94;81.02
76104;HTU21D;64831;44.870;37.336;2023-11-22T12:55:43;13.94;81.04
76104;HTU21D;64831;44.870;37.336;2023-11-22T12:58:11;13.95;80.98
76104;HTU21D;64831;44.870;37.336;2023-11-22T13:00:41;13.97;81.00
76104;HTU21D;64831;44.870;37.336;2023-11-22T13:03:08;13.98;80.94
76104;HTU21D;64831;44.870;37.336;2023-11-22T13:05:36;14.01;80.93
76104;HTU21D;64831;44.870;37.336;2023-11-22T13:08:02;14.03;80.88
76104;HTU21D;64831;44.870;37.336;2023-11-22T13:10:29;14.03;81.06
76104;HTU21D;64831;44.870;37.336;2023-11-22T13:12:58;14.05;80.95
76104;HTU21D;64831;44.870;37.336;2023-11-22T13:15:26;14.05;81.03
76104;HTU21D;64831;44.870;37.336;2023-11-22T13:17:52;14.06;80.90
76104;HTU21D;64831;44.870;37.336;2023-11-22T13:20:24;14.06;81.11
76104;HTU21D;64831;44.870;37.336;2023-11-22T13:22:52;14.06;81.17
76104;HTU21D;64831;44.870;37.336;2023-11-22T13:25:19;14.07;81.11
76104;HTU21D;64831;44.870;37.336;2023-11-22T13:27:48;14.06;81.23
76104;HTU21D;64831;44.870;37.336;2023-11-22T13:30:15;14.05;81.27
76104;HTU21D;64831;44.870;37.336;2023-11-22T13:32:41;14.07;81.08
76104;HTU21D;64831;44.870;37.336;2023-11-22T13:35:09;14.07;81.01
76104;HTU21D;64831;44.870;37.336;2023-11-22T13:37:46;14.09;80.99
76104;HTU21D;64831;44.870;37.336;2023-11-22T13:40:19;14.10;81.10
76104;HTU21D;64831;44.870;37.336;2023-11-22T13:42:51;14.11;81.04
76104;HTU21D;64831;44.870;37.336;2023-11-22T13:45:19;14.13;80.85
76104;HTU21D;64831;44.870;37.336;2023-11-22T13:50:19;14.17;80.46
76104;HTU21D;64831;44.870;37.336;2023-11-22T13:52:54;14.18;80.36
76104;HTU21D;64831;44.870;37.336;2023-11-22T13:55:20;14.18;80.37
76104;HTU21D;64831;44.870;37.336;2023-11-22T13:57:54;14.17;80.59
76104;HTU21D;64831;44.870;37.336;2023-11-22T14:00:23;14.17;80.55
76104;HTU21D;64831;44.870;37.336;2023-11-22T14:02:56;14.14;80.62
76104;HTU21D;64831;44.870;37.336;2023-11-22T14:05:23;14.14;80.65
76104;HTU21D;64831;44.870;37.336;2023-11-22T14:07:49;14.10;80.83
76104;HTU21D;64831;44.870;37.336;2023-11-22T14:10:17;14.06;80.68
76104;HTU21D;64831;44.870;37.336;2023-11-22T14:12:44;14.03;80.75
76104;HTU21D;64831;44.870;37.336;2023-11-22T14:15:12;13.99;80.91
76104;HTU21D;64831;44.870;37.336;2023-11-22T14:17:38;13.95;81.06
76104;HTU21D;64831;44.870;37.336;2023-11-22T14:20:05;13.92;81.11
76104;HTU21D;64831;44.870;37.336;2023-11-22T14:22:34;13.85;81.09
76104;HTU21D;64831;44.870;37.336;2023-11-22T14:24:59;13.80;81.41
76104;HTU21D;64831;44.870;37.336;2023-11-22T14:27:26;13.78;81.51
76104;HTU21D;64831;44.870;37.336;2023-11-22T14:29:53;13.76;81.57
76104;HTU21D;64831;44.870;37.336;2023-11-22T14:32:20;13.71;81.39
76104;HTU21D;64831;44.870;37.336;2023-11-22T14:34:46;13.68;81.27
76104;HTU21D;64831;44.870;37.336;2023-11-22T14:37:13;13.67;81.42
76104;HTU21D;64831;44.870;37.336;2023-11-22T14:39:39;13.69;81.79
76104;HTU21D;64831;44.870;37.336;2023-11-22T14:42:07;13.68;82.01
76104;HTU21D;64831;44.870;37.336;2023-11-22T14:44:34;13.67;81.55
76104;HTU21D;64831;44.870;37.336;2023-11-22T14:47:01;13.69;81.62
76104;HTU21D;64831;44.870;37.336;2023-11-22T14:49:34;13.70;81.69
76104;HTU21D;64831;44.870;37.336;2023-11-22T14:52:00;13.67;81.74
76104;HTU21D;64831;44.870;37.336;2023-11-22T14:54:27;13.65;81.63
76104;HTU21D;64831;44.870;37.336;2023-11-22T14:56:53;13.59;81.57
76104;HTU21D;64831;44.870;37.336;2023-11-22T14:59:22;13.52;81.33
76104;HTU21D;64831;44.870;37.336;2023-11-22T15:01:48;13.45;81.20
76104;HTU21D;64831;44.870;37.336;2023-11-22T15:04:14;13.38;81.12
76104;HTU21D;64831;44.870;37.336;2023-11-22T15:06:40;13.34;81.10
76104;HTU21D;64831;44.870;37.336;2023-11-22T15:09:07;13.30;81.11